sensor_id;sensor_type;location;lat;lon;timestamp;P1;durP1;ratioP1;P2;durP2;ratioP2
18471;SDS011;9365;48.258;12.518;2022-07-06T00:05:09;1.7099999999999997;;;1.48;;
18471;SDS011;9365;48.258;12.518;2022-07-06T00:10:36;3.6799999999999997;;;1.8900000000000001;;
18471;SDS011;9365;48.258;12.518;2022-07-06T00:16:04;2.6100000000000003;;;1.8800000000000001;;
18471;SDS011;9365;48.258;12.518;2022-07-06T00:21:32;4.36;;;1.8900000000000001;;
18471;SDS011;9365;48.258;12.518;2022-07-06T00:26:59;4.99;;;2.0300000000000002;;
18471;SDS011;9365;48.258;12.518;2022-07-06T00:32:27;4.14;;;2.4999999999999996;;
18471;SDS011;9365;48.258;12.518;2022-07-06T00:37:54;5.27;;;2.49;;
18471;SDS011;9365;48.258;12.518;2022-07-06T00:43:22;5.5;;;2.1100000000000003;;
18471;SDS011;9365;48.258;12.518;2022-07-06T00:48:49;3.85;;;1.9300000000000002;;
18471;SDS011;9365;48.258;12.518;2022-07-06T00:54:17;5.14;;;1.8799999999999997;;
18471;SDS011;9365;48.258;12.518;2022-07-06T00:59:44;2.11;;;1.7900000000000003;;
18471;SDS011;9365;48.258;12.518;2022-07-06T01:05:12;2.6499999999999995;;;1.7599999999999998;;
18471;SDS011;9365;48.258;12.518;2022-07-06T01:10:40;1.9300000000000002;;;1.5799999999999996;;
18471;SDS011;9365;48.258;12.518;2022-07-06T01:16:08;4.140000000000001;;;1.75;;
18471;SDS011;9365;48.258;12.518;2022-07-06T01:21:37;3.54;;;1.85;;
18471;SDS011;9365;48.258;12.518;2022-07-06T01:27:05;2.0799999999999996;;;1.9599999999999997;;
18471;SDS011;9365;48.258;12.518;2022-07-06T01:32:33;5.49;;;2.0900000000000007;;
18471;SDS011;9365;48.258;12.518;2022-07-06T01:38:00;4.95;;;2.1000000000000005;;
18471;SDS011;9365;48.258;12.518;2022-07-06T01:43:28;2.13;;;1.95;;
18471;SDS011;9365;48.258;12.518;2022-07-06T01:48:56;3.9299999999999997;;;1.92;;
18471;SDS011;9365;48.258;12.518;2022-07-06T01:54:23;3.5300000000000002;;;1.78;;
18471;SDS011;9365;48.258;12.518;2022-07-06T01:59:51;3.55;;;2.37;;
18471;SDS011;9365;48.258;12.518;2022-07-06T02:05:18;5.619999999999999;;;2.7600000000000002;;
18471;SDS011;9365;48.258;12.518;2022-07-06T02:10:46;6.390000000000001;;;2.71;;
18471;SDS011;9365;48.258;12.518;2022-07-06T02:16:13;9.87;;;2.56;;
18471;SDS011;9365;48.258;12.518;2022-07-06T02:21:41;5.720000000000001;;;2.5699999999999994;;
18471;SDS011;9365;48.258;12.518;2022-07-06T02:27:08;3.59;;;2.55;;
18471;SDS011;9365;48.258;12.518;2022-07-06T02:32:36;7.600000000000001;;;2.9499999999999997;;
18471;SDS011;9365;48.258;12.518;2022-07-06T02:38:03;4.98;;;2.1700000000000004;;
18471;SDS011;9365;48.258;12.518;2022-07-06T02:43:31;3.1300000000000003;;;2.5700000000000003;;
18471;SDS011;9365;48.258;12.518;2022-07-06T02:48:59;5.32;;;2.7600000000000002;;
18471;SDS011;9365;48.258;12.518;2022-07-06T02:54:26;7.049999999999999;;;2.7599999999999993;;
18471;SDS011;9365;48.258;12.518;2022-07-06T02:59:54;4.4799999999999995;;;2.62;;
18471;SDS011;9365;48.258;12.518;2022-07-06T03:05:21;3.7699999999999996;;;2.5700000000000003;;
18471;SDS011;9365;48.258;12.518;2022-07-06T03:10:49;6.39;;;2.34;;
18471;SDS011;9365;48.258;12.518;2022-07-06T03:16:16;3.6099999999999994;;;2.5100000000000002;;
18471;SDS011;9365;48.258;12.518;2022-07-06T03:21:44;3.59;;;2.37;;
18471;SDS011;9365;48.258;12.518;2022-07-06T03:27:11;4.27;;;2.21;;
18471;SDS011;9365;48.258;12.518;2022-07-06T03:32:39;5.2;;;2.63;;
18471;SDS011;9365;48.258;12.518;2022-07-06T03:38:07;5.920000000000001;;;2.97;;
18471;SDS011;9365;48.258;12.518;2022-07-06T03:43:34;7.1899999999999995;;;2.5799999999999996;;
18471;SDS011;9365;48.258;12.518;2022-07-06T03:49:02;3.3199999999999994;;;2.4299999999999997;;
18471;SDS011;9365;48.258;12.518;2022-07-06T03:54:30;10.45;;;2.4699999999999998;;
18471;SDS011;9365;48.258;12.518;2022-07-06T03:59:57;5.700000000000001;;;2.68;;
18471;SDS011;9365;48.258;12.518;2022-07-06T04:05:25;3.63;;;2.8200000000000003;;
18471;SDS011;9365;48.258;12.518;2022-07-06T04:10:52;3.17;;;2.85;;
18471;SDS011;9365;48.258;12.518;2022-07-06T04:16:20;3.12;;;2.6800000000000006;;
18471;SDS011;9365;48.258;12.518;2022-07-06T04:21:48;5.76;;;3.18;;
18471;SDS011;9365;48.258;12.518;2022-07-06T04:27:15;9.64;;;2.8199999999999994;;
18471;SDS011;9365;48.258;12.518;2022-07-06T04:32:43;5.7700000000000005;;;2.87;;
18471;SDS011;9365;48.258;12.518;2022-07-06T04:38:10;5.85;;;2.7600000000000002;;
18471;SDS011;9365;48.258;12.518;2022-07-06T04:43:38;6.590000000000001;;;2.66;;
18471;SDS011;9365;48.258;12.518;2022-07-06T04:49:05;6.6;;;2.81;;
18471;SDS011;9365;48.258;12.518;2022-07-06T04:54:33;9.21;;;2.76;;
18471;SDS011;9365;48.258;12.518;2022-07-06T05:00:01;4.749999999999999;;;2.63;;
18471;SDS011;9365;48.258;12.518;2022-07-06T05:05:29;4.4799999999999995;;;2.5599999999999996;;
18471;SDS011;9365;48.258;12.518;2022-07-06T05:10:57;4.97;;;2.5200000000000005;;
18471;SDS011;9365;48.258;12.518;2022-07-06T05:16:24;3.3600000000000003;;;2.59;;
18471;SDS011;9365;48.258;12.518;2022-07-06T05:21:52;3.9900000000000007;;;2.19;;
18471;SDS011;9365;48.258;12.518;2022-07-06T05:27:20;2.87;;;2.5599999999999996;;
18471;SDS011;9365;48.258;12.518;2022-07-06T05:32:48;7.3;;;2.5;;
18471;SDS011;9365;48.258;12.518;2022-07-06T05:38:15;3.31;;;2.12;;
18471;SDS011;9365;48.258;12.518;2022-07-06T05:43:44;5.11;;;2.5100000000000002;;
18471;SDS011;9365;48.258;12.518;2022-07-06T05:49:11;1.7600000000000002;;;1.6800000000000002;;
18471;SDS011;9365;48.258;12.518;2022-07-06T05:54:39;1.8199999999999998;;;1.73;;
18471;SDS011;9365;48.258;12.518;2022-07-06T06:00:07;2.31;;;1.9700000000000002;;
18471;SDS011;9365;48.258;12.518;2022-07-06T06:05:35;1.9300000000000002;;;1.8499999999999996;;
18471;SDS011;9365;48.258;12.518;2022-07-06T06:11:03;2.6499999999999995;;;1.5899999999999999;;
18471;SDS011;9365;48.258;12.518;2022-07-06T06:16:31;4.589999999999999;;;1.9300000000000002;;
18471;SDS011;9365;48.258;12.518;2022-07-06T06:21:58;1.64;;;1.51;;
18471;SDS011;9365;48.258;12.518;2022-07-06T06:27:26;3.4199999999999995;;;1.8299999999999996;;
18471;SDS011;9365;48.258;12.518;2022-07-06T06:33:04;1.3199999999999998;;;1.2600000000000002;;
18471;SDS011;9365;48.258;12.518;2022-07-06T06:38:32;2.6399999999999997;;;1.6;;
18471;SDS011;9365;48.258;12.518;2022-07-06T06:43:59;3.8300000000000005;;;1.9300000000000002;;
18471;SDS011;9365;48.258;12.518;2022-07-06T06:49:27;1.9300000000000002;;;1.4899999999999998;;
18471;SDS011;9365;48.258;12.518;2022-07-06T06:54:55;5.640000000000001;;;2.35;;
18471;SDS011;9365;48.258;12.518;2022-07-06T07:00:22;2.45;;;1.45;;
18471;SDS011;9365;48.258;12.518;2022-07-06T07:05:50;3.7299999999999995;;;1.56;;
18471;SDS011;9365;48.258;12.518;2022-07-06T07:11:17;1.7400000000000002;;;1.64;;
18471;SDS011;9365;48.258;12.518;2022-07-06T07:16:45;1.5699999999999998;;;1.46;;
18471;SDS011;9365;48.258;12.518;2022-07-06T07:22:13;2.17;;;1.2600000000000002;;
18471;SDS011;9365;48.258;12.518;2022-07-06T07:27:41;4.8999999999999995;;;1.8599999999999999;;
18471;SDS011;9365;48.258;12.518;2022-07-06T07:33:08;2.7699999999999996;;;1.47;;
18471;SDS011;9365;48.258;12.518;2022-07-06T07:38:36;2.58;;;1.6;;
18471;SDS011;9365;48.258;12.518;2022-07-06T07:44:03;8.94;;;1.7399999999999998;;
18471;SDS011;9365;48.258;12.518;2022-07-06T07:49:31;3.7700000000000005;;;1.8199999999999998;;
18471;SDS011;9365;48.258;12.518;2022-07-06T07:54:59;1.7799999999999998;;;1.3400000000000003;;
18471;SDS011;9365;48.258;12.518;2022-07-06T08:00:27;4.700000000000001;;;1.72;;
18471;SDS011;9365;48.258;12.518;2022-07-06T08:05:55;3.09;;;1.9299999999999997;;
18471;SDS011;9365;48.258;12.518;2022-07-06T08:11:22;5.55;;;1.8799999999999997;;
18471;SDS011;9365;48.258;12.518;2022-07-06T08:16:50;3.46;;;1.9899999999999998;;
18471;SDS011;9365;48.258;12.518;2022-07-06T08:22:17;2.1500000000000004;;;1.72;;
18471;SDS011;9365;48.258;12.518;2022-07-06T08:27:45;9.620000000000001;;;2.06;;
18471;SDS011;9365;48.258;12.518;2022-07-06T08:33:13;2.4099999999999997;;;2.22;;
18471;SDS011;9365;48.258;12.518;2022-07-06T08:38:41;3.81;;;1.7399999999999998;;
18471;SDS011;9365;48.258;12.518;2022-07-06T08:44:08;3.1900000000000004;;;1.72;;
18471;SDS011;9365;48.258;12.518;2022-07-06T08:49:36;3.9199999999999995;;;1.49;;
18471;SDS011;9365;48.258;12.518;2022-07-06T08:55:04;3.91;;;2.28;;
18471;SDS011;9365;48.258;12.518;2022-07-06T09:00:32;6.720000000000001;;;1.6199999999999999;;
18471;SDS011;9365;48.258;12.518;2022-07-06T09:06:01;4.26;;;1.6800000000000002;;
18471;SDS011;9365;48.258;12.518;2022-07-06T09:11:29;3.3300000000000005;;;1.51;;
18471;SDS011;9365;48.258;12.518;2022-07-06T09:17:01;2.6100000000000003;;;1.67;;
18471;SDS011;9365;48.258;12.518;2022-07-06T09:22:30;3.47;;;1.7899999999999998;;
18471;SDS011;9365;48.258;12.518;2022-07-06T09:27:58;2.27;;;1.8800000000000001;;
18471;SDS011;9365;48.258;12.518;2022-07-06T09:33:26;3.8199999999999994;;;1.6800000000000002;;
18471;SDS011;9365;48.258;12.518;2022-07-06T09:38:54;7.5;;;3.56;;
18471;SDS011;9365;48.258;12.518;2022-07-06T09:44:22;10.24;;;3.31;;
18471;SDS011;9365;48.258;12.518;2022-07-06T09:49:50;4.640000000000001;;;1.8799999999999997;;
18471;SDS011;9365;48.258;12.518;2022-07-06T09:55:22;5.090000000000001;;;2.54;;
18471;SDS011;9365;48.258;12.518;2022-07-06T10:00:50;2.7700000000000005;;;2.13;;
18471;SDS011;9365;48.258;12.518;2022-07-06T10:06:17;7.960000000000001;;;2.94;;
18471;SDS011;9365;48.258;12.518;2022-07-06T10:11:47;3.5199999999999996;;;1.81;;
18471;SDS011;9365;48.258;12.518;2022-07-06T10:17:14;4.35;;;1.8199999999999998;;
18471;SDS011;9365;48.258;12.518;2022-07-06T10:22:42;3.7600000000000002;;;2.0300000000000002;;
18471;SDS011;9365;48.258;12.518;2022-07-06T10:28:10;4.160000000000001;;;1.56;;
18471;SDS011;9365;48.258;12.518;2022-07-06T10:33:38;2.88;;;1.6799999999999997;;
18471;SDS011;9365;48.258;12.518;2022-07-06T10:39:06;3.44;;;1.55;;
18471;SDS011;9365;48.258;12.518;2022-07-06T10:44:34;5.2;;;2.16;;
18471;SDS011;9365;48.258;12.518;2022-07-06T10:50:12;2.1;;;1.8;;
18471;SDS011;9365;48.258;12.518;2022-07-06T10:55:41;5.279999999999999;;;1.56;;
18471;SDS011;9365;48.258;12.518;2022-07-06T11:01:10;3.3899999999999997;;;1.8999999999999997;;
18471;SDS011;9365;48.258;12.518;2022-07-06T11:06:38;3.59;;;1.5999999999999999;;
18471;SDS011;9365;48.258;12.518;2022-07-06T11:12:11;6.44;;;1.9300000000000002;;
18471;SDS011;9365;48.258;12.518;2022-07-06T11:17:39;5.21;;;1.7;;
18471;SDS011;9365;48.258;12.518;2022-07-06T11:23:11;5.77;;;1.7799999999999998;;
18471;SDS011;9365;48.258;12.518;2022-07-06T11:28:39;6.12;;;1.7599999999999998;;
18471;SDS011;9365;48.258;12.518;2022-07-06T11:34:08;4.16;;;1.8699999999999999;;
18471;SDS011;9365;48.258;12.518;2022-07-06T11:39:36;6.49;;;1.9099999999999997;;
18471;SDS011;9365;48.258;12.518;2022-07-06T11:45:05;3.8900000000000006;;;1.42;;
18471;SDS011;9365;48.258;12.518;2022-07-06T11:50:33;3.7700000000000005;;;2.04;;
18471;SDS011;9365;48.258;12.518;2022-07-06T11:56:02;2.13;;;1.48;;
18471;SDS011;9365;48.258;12.518;2022-07-06T12:01:30;2.33;;;1.55;;
18471;SDS011;9365;48.258;12.518;2022-07-06T12:06:59;1.53;;;1.4700000000000002;;
18471;SDS011;9365;48.258;12.518;2022-07-06T12:12:27;3.1500000000000004;;;1.6900000000000002;;
18471;SDS011;9365;48.258;12.518;2022-07-06T12:17:55;3.6100000000000003;;;1.4899999999999998;;
18471;SDS011;9365;48.258;12.518;2022-07-06T12:23:23;2.25;;;1.33;;
18471;SDS011;9365;48.258;12.518;2022-07-06T12:28:59;2.31;;;1.5399999999999998;;
18471;SDS011;9365;48.258;12.518;2022-07-06T12:34:27;2.2399999999999998;;;1.45;;
18471;SDS011;9365;48.258;12.518;2022-07-06T12:39:55;1.54;;;1.4;;
18471;SDS011;9365;48.258;12.518;2022-07-06T12:45:25;2.67;;;1.5;;
18471;SDS011;9365;48.258;12.518;2022-07-06T12:50:53;2.57;;;1.49;;
18471;SDS011;9365;48.258;12.518;2022-07-06T12:56:23;3.7600000000000007;;;1.35;;
18471;SDS011;9365;48.258;12.518;2022-07-06T13:01:51;1.56;;;1.4300000000000002;;
18471;SDS011;9365;48.258;12.518;2022-07-06T13:07:19;2.37;;;1.35;;
18471;SDS011;9365;48.258;12.518;2022-07-06T13:12:48;7.539999999999999;;;2.4899999999999998;;
18471;SDS011;9365;48.258;12.518;2022-07-06T13:18:15;4.42;;;2.0300000000000002;;
18471;SDS011;9365;48.258;12.518;2022-07-06T13:23:43;5.85;;;1.6800000000000002;;
18471;SDS011;9365;48.258;12.518;2022-07-06T13:29:11;4.25;;;2.3299999999999996;;
18471;SDS011;9365;48.258;12.518;2022-07-06T13:34:38;10.229999999999999;;;2.2399999999999998;;
18471;SDS011;9365;48.258;12.518;2022-07-06T13:40:06;3.6399999999999997;;;1.7;;
18471;SDS011;9365;48.258;12.518;2022-07-06T13:45:34;7.87;;;2.16;;
18471;SDS011;9365;48.258;12.518;2022-07-06T13:51:02;13.84;;;4.180000000000001;;
18471;SDS011;9365;48.258;12.518;2022-07-06T13:56:29;4.5200000000000005;;;1.6600000000000001;;
18471;SDS011;9365;48.258;12.518;2022-07-06T14:01:57;2.71;;;1.2299999999999998;;
18471;SDS011;9365;48.258;12.518;2022-07-06T14:07:26;1.67;;;1.2200000000000002;;
18471;SDS011;9365;48.258;12.518;2022-07-06T14:12:54;9.17;;;2.5200000000000005;;
18471;SDS011;9365;48.258;12.518;2022-07-06T14:18:22;1.7299999999999998;;;1.42;;
18471;SDS011;9365;48.258;12.518;2022-07-06T14:23:50;2.21;;;1.2900000000000003;;
18471;SDS011;9365;48.258;12.518;2022-07-06T14:29:17;2.9899999999999998;;;1.47;;
18471;SDS011;9365;48.258;12.518;2022-07-06T14:34:45;4.95;;;1.29;;
18471;SDS011;9365;48.258;12.518;2022-07-06T14:40:13;1.54;;;1.44;;
18471;SDS011;9365;48.258;12.518;2022-07-06T14:45:42;4.21;;;1.58;;
18471;SDS011;9365;48.258;12.518;2022-07-06T14:51:10;4.250000000000001;;;1.1900000000000002;;
18471;SDS011;9365;48.258;12.518;2022-07-06T14:56:37;6.3199999999999985;;;1.14;;
18471;SDS011;9365;48.258;12.518;2022-07-06T15:02:05;3.55;;;1.4100000000000001;;
18471;SDS011;9365;48.258;12.518;2022-07-06T15:07:33;9.309999999999999;;;1.3699999999999999;;
18471;SDS011;9365;48.258;12.518;2022-07-06T15:13:01;3.3;;;1.0399999999999998;;
18471;SDS011;9365;48.258;12.518;2022-07-06T15:18:28;4.840000000000001;;;1.23;;
18471;SDS011;9365;48.258;12.518;2022-07-06T15:23:56;1.9599999999999997;;;1.6199999999999999;;
18471;SDS011;9365;48.258;12.518;2022-07-06T15:29:24;1.46;;;1.0799999999999998;;
18471;SDS011;9365;48.258;12.518;2022-07-06T15:34:52;5.16;;;1.35;;
18471;SDS011;9365;48.258;12.518;2022-07-06T15:40:20;4.750000000000001;;;1.3599999999999999;;
18471;SDS011;9365;48.258;12.518;2022-07-06T15:45:48;2.1500000000000004;;;1.0699999999999998;;
18471;SDS011;9365;48.258;12.518;2022-07-06T15:51:21;3.25;;;1.27;;
18471;SDS011;9365;48.258;12.518;2022-07-06T15:56:49;2.8999999999999995;;;1.0699999999999998;;
18471;SDS011;9365;48.258;12.518;2022-07-06T16:02:17;2.2199999999999998;;;1.19;;
18471;SDS011;9365;48.258;12.518;2022-07-06T16:07:45;1.7500000000000004;;;1.1;;
18471;SDS011;9365;48.258;12.518;2022-07-06T16:13:12;1.6300000000000001;;;1.14;;
18471;SDS011;9365;48.258;12.518;2022-07-06T16:18:40;0.9799999999999999;;;0.89;;
18471;SDS011;9365;48.258;12.518;2022-07-06T16:24:08;4.5200000000000005;;;1.7399999999999998;;
18471;SDS011;9365;48.258;12.518;2022-07-06T16:29:35;1.9600000000000002;;;1.13;;
18471;SDS011;9365;48.258;12.518;2022-07-06T16:35:03;4.800000000000001;;;1.6099999999999999;;
18471;SDS011;9365;48.258;12.518;2022-07-06T16:40:31;3.2399999999999998;;;1.3000000000000003;;
18471;SDS011;9365;48.258;12.518;2022-07-06T16:45:59;5.15;;;1.1199999999999999;;
18471;SDS011;9365;48.258;12.518;2022-07-06T16:51:27;3.09;;;1.45;;
18471;SDS011;9365;48.258;12.518;2022-07-06T16:56:55;1.5699999999999998;;;1.23;;
18471;SDS011;9365;48.258;12.518;2022-07-06T17:02:22;1.7600000000000002;;;1.36;;
18471;SDS011;9365;48.258;12.518;2022-07-06T17:07:50;2.98;;;1.2;;
18471;SDS011;9365;48.258;12.518;2022-07-06T17:13:18;3.3200000000000003;;;1.54;;
18471;SDS011;9365;48.258;12.518;2022-07-06T17:18:45;6.780000000000001;;;1.1599999999999997;;
18471;SDS011;9365;48.258;12.518;2022-07-06T17:24:13;2.4;;;1.14;;
18471;SDS011;9365;48.258;12.518;2022-07-06T17:29:40;0.95;;;0.95;;
18471;SDS011;9365;48.258;12.518;2022-07-06T17:35:08;1.26;;;1.0699999999999998;;
18471;SDS011;9365;48.258;12.518;2022-07-06T17:40:36;1.7399999999999998;;;1.33;;
18471;SDS011;9365;48.258;12.518;2022-07-06T17:46:03;2.69;;;1.44;;
18471;SDS011;9365;48.258;12.518;2022-07-06T17:51:31;4.37;;;1.65;;
18471;SDS011;9365;48.258;12.518;2022-07-06T17:56:58;5.659999999999999;;;1.3399999999999999;;
18471;SDS011;9365;48.258;12.518;2022-07-06T18:02:26;2.03;;;1.5;;
18471;SDS011;9365;48.258;12.518;2022-07-06T18:07:53;8.66;;;1.7899999999999998;;
18471;SDS011;9365;48.258;12.518;2022-07-06T18:13:21;8.760000000000002;;;2.04;;
18471;SDS011;9365;48.258;12.518;2022-07-06T18:18:49;1.75;;;1.5299999999999998;;
18471;SDS011;9365;48.258;12.518;2022-07-06T18:24:16;2.17;;;1.15;;
18471;SDS011;9365;48.258;12.518;2022-07-06T18:29:44;2.1;;;1.4;;
18471;SDS011;9365;48.258;12.518;2022-07-06T18:35:12;2.77;;;1.8199999999999998;;
18471;SDS011;9365;48.258;12.518;2022-07-06T18:40:39;5.84;;;1.47;;
18471;SDS011;9365;48.258;12.518;2022-07-06T18:46:07;4.28;;;1.92;;
18471;SDS011;9365;48.258;12.518;2022-07-06T18:51:35;5.46;;;1.48;;
18471;SDS011;9365;48.258;12.518;2022-07-06T18:57:02;5.380000000000001;;;1.83;;
18471;SDS011;9365;48.258;12.518;2022-07-06T19:02:30;9.4;;;1.2599999999999998;;
18471;SDS011;9365;48.258;12.518;2022-07-06T19:07:58;4.3;;;1.47;;
18471;SDS011;9365;48.258;12.518;2022-07-06T19:13:25;5.01;;;1.36;;
18471;SDS011;9365;48.258;12.518;2022-07-06T19:18:53;2.17;;;1.4;;
18471;SDS011;9365;48.258;12.518;2022-07-06T19:24:21;1.9300000000000002;;;1.35;;
18471;SDS011;9365;48.258;12.518;2022-07-06T19:29:48;3.19;;;1.64;;
18471;SDS011;9365;48.258;12.518;2022-07-06T19:35:16;4.2299999999999995;;;1.48;;
18471;SDS011;9365;48.258;12.518;2022-07-06T19:40:44;5.319999999999999;;;1.6599999999999997;;
18471;SDS011;9365;48.258;12.518;2022-07-06T19:46:11;2.13;;;1.6199999999999999;;
18471;SDS011;9365;48.258;12.518;2022-07-06T19:51:39;3.6100000000000003;;;1.86;;
18471;SDS011;9365;48.258;12.518;2022-07-06T19:57:07;1.8299999999999996;;;1.64;;
18471;SDS011;9365;48.258;12.518;2022-07-06T20:02:34;4.73;;;1.75;;
18471;SDS011;9365;48.258;12.518;2022-07-06T20:08:03;2.86;;;1.83;;
18471;SDS011;9365;48.258;12.518;2022-07-06T20:13:30;2.6500000000000004;;;1.8800000000000001;;
18471;SDS011;9365;48.258;12.518;2022-07-06T20:18:58;2.1999999999999997;;;2.0300000000000002;;
18471;SDS011;9365;48.258;12.518;2022-07-06T20:24:25;3.25;;;2.05;;
18471;SDS011;9365;48.258;12.518;2022-07-06T20:29:53;3.9400000000000004;;;1.83;;
18471;SDS011;9365;48.258;12.518;2022-07-06T20:35:21;2.7;;;1.55;;
18471;SDS011;9365;48.258;12.518;2022-07-06T20:40:48;1.9400000000000002;;;1.81;;
18471;SDS011;9365;48.258;12.518;2022-07-06T20:46:16;8.069999999999999;;;2.0;;
18471;SDS011;9365;48.258;12.518;2022-07-06T20:51:43;3.2399999999999998;;;1.7400000000000002;;
18471;SDS011;9365;48.258;12.518;2022-07-06T20:57:11;3.8900000000000006;;;2.21;;
18471;SDS011;9365;48.258;12.518;2022-07-06T21:02:39;3.38;;;2.2699999999999996;;
18471;SDS011;9365;48.258;12.518;2022-07-06T21:08:06;5.01;;;2.41;;
18471;SDS011;9365;48.258;12.518;2022-07-06T21:13:34;7.58;;;2.37;;
18471;SDS011;9365;48.258;12.518;2022-07-06T21:19:02;3.6400000000000006;;;2.17;;
18471;SDS011;9365;48.258;12.518;2022-07-06T21:24:29;2.85;;;2.27;;
18471;SDS011;9365;48.258;12.518;2022-07-06T21:29:57;3.69;;;2.2899999999999996;;
18471;SDS011;9365;48.258;12.518;2022-07-06T21:35:25;3.9800000000000004;;;2.55;;
18471;SDS011;9365;48.258;12.518;2022-07-06T21:40:52;3.56;;;2.4200000000000004;;
18471;SDS011;9365;48.258;12.518;2022-07-06T21:46:20;2.8;;;2.43;;
18471;SDS011;9365;48.258;12.518;2022-07-06T21:51:47;3.96;;;2.43;;
18471;SDS011;9365;48.258;12.518;2022-07-06T21:57:15;5.17;;;2.5100000000000002;;
18471;SDS011;9365;48.258;12.518;2022-07-06T22:02:43;2.95;;;2.54;;
18471;SDS011;9365;48.258;12.518;2022-07-06T22:08:10;5.14;;;2.71;;
18471;SDS011;9365;48.258;12.518;2022-07-06T22:13:38;2.8500000000000005;;;2.56;;
18471;SDS011;9365;48.258;12.518;2022-07-06T22:19:06;6.22;;;2.7699999999999996;;
18471;SDS011;9365;48.258;12.518;2022-07-06T22:24:33;2.5300000000000002;;;2.3499999999999996;;
18471;SDS011;9365;48.258;12.518;2022-07-06T22:30:01;2.7700000000000005;;;2.37;;
18471;SDS011;9365;48.258;12.518;2022-07-06T22:35:29;3.0;;;2.56;;
18471;SDS011;9365;48.258;12.518;2022-07-06T22:40:56;2.9400000000000004;;;2.2199999999999998;;
18471;SDS011;9365;48.258;12.518;2022-07-06T22:46:24;2.8299999999999996;;;2.5700000000000003;;
18471;SDS011;9365;48.258;12.518;2022-07-06T22:51:52;6.319999999999999;;;2.25;;
18471;SDS011;9365;48.258;12.518;2022-07-06T22:57:19;2.2500000000000004;;;2.02;;
18471;SDS011;9365;48.258;12.518;2022-07-06T23:02:47;6.409999999999999;;;2.5100000000000002;;
18471;SDS011;9365;48.258;12.518;2022-07-06T23:08:15;2.5100000000000002;;;2.3099999999999996;;
18471;SDS011;9365;48.258;12.518;2022-07-06T23:13:43;3.650000000000001;;;2.04;;
18471;SDS011;9365;48.258;12.518;2022-07-06T23:19:11;2.77;;;2.41;;
18471;SDS011;9365;48.258;12.518;2022-07-06T23:24:38;7.880000000000001;;;2.2700000000000005;;
18471;SDS011;9365;48.258;12.518;2022-07-06T23:30:06;6.07;;;2.3099999999999996;;
18471;SDS011;9365;48.258;12.518;2022-07-06T23:35:34;3.9799999999999995;;;2.0300000000000002;;
18471;SDS011;9365;48.258;12.518;2022-07-06T23:41:01;2.7600000000000002;;;2.44;;
18471;SDS011;9365;48.258;12.518;2022-07-06T23:46:29;3.750000000000001;;;2.47;;
18471;SDS011;9365;48.258;12.518;2022-07-06T23:51:57;2.8;;;2.13;;
18471;SDS011;9365;48.258;12.518;2022-07-06T23:57:25;2.7;;;2.5;;
